N56AT PADQ-PAVD
Flight info
| Callsign | N56AT |
|---|---|
| Flight time | 1h 19m |
| Altitude | 35000 |
| Route | ODK |
| Aircraft | STAR/L-DFHILM3ORUVWY/W |
Departure
| Time | 2026-04-20 22:58 |
|---|---|
| Airport | Kodiak Airport (PADQ) |
Arrival
| Time | 2026-04-21 00:17 |
|---|---|
| Airport | Valdez Pioneer Field (PAVD) |
| Time | Latitude | Longitude | Altitude | Speed | Heading |
|---|---|---|---|---|---|
| 2026-04-20 22:38 | 57.75388 | -152.51357 | 67 ft | 0 kts | 61° |
| 2026-04-20 22:45 | 57.75390 | -152.51327 | 67 ft | 14 kts | 102° |
| 2026-04-20 22:45 | 57.75277 | -152.51229 | 67 ft | 15 kts | 152° |
| 2026-04-20 22:46 | 57.75173 | -152.51047 | 64 ft | 14 kts | 160° |
| 2026-04-20 22:46 | 57.75116 | -152.50855 | 66 ft | 31 kts | 78° |
| 2026-04-20 22:46 | 57.75096 | -152.50461 | 67 ft | 14 kts | 94° |
| 2026-04-20 22:46 | 57.75092 | -152.50191 | 65 ft | 26 kts | 90° |
| 2026-04-20 22:47 | 57.75089 | -152.49901 | 68 ft | 26 kts | 91° |
| 2026-04-20 22:47 | 57.75082 | -152.49642 | 68 ft | 16 kts | 104° |
| 2026-04-20 22:47 | 57.74998 | -152.49427 | 68 ft | 15 kts | 128° |
| 2026-04-20 22:47 | 57.74933 | -152.49266 | 64 ft | 12 kts | 127° |
| 2026-04-20 22:48 | 57.74878 | -152.49123 | 68 ft | 19 kts | 127° |
| 2026-04-20 22:48 | 57.74831 | -152.49001 | 67 ft | 17 kts | 126° |
| 2026-04-20 22:48 | 57.74797 | -152.48919 | 67 ft | 0 kts | 127° |
| 2026-04-20 22:49 | 57.74797 | -152.48918 | 67 ft | 2 kts | 127° |
| 2026-04-20 22:49 | 57.74775 | -152.48864 | 64 ft | 0 kts | 126° |
| 2026-04-20 22:52 | 57.74772 | -152.48857 | 64 ft | 6 kts | 126° |
| 2026-04-20 22:52 | 57.74753 | -152.48740 | 65 ft | 6 kts | 62° |
| 2026-04-20 22:52 | 57.74759 | -152.48725 | 64 ft | 0 kts | 44° |
| 2026-04-20 22:54 | 57.74760 | -152.48725 | 65 ft | 0 kts | 44° |
| 2026-04-20 22:55 | 57.74788 | -152.48694 | 63 ft | 14 kts | 28° |
| 2026-04-20 22:55 | 57.74783 | -152.48450 | 62 ft | 28 kts | 121° |
| 2026-04-20 22:55 | 57.74667 | -152.48143 | 68 ft | 26 kts | 126° |
| 2026-04-20 22:55 | 57.74610 | -152.48075 | 67 ft | 3 kts | 256° |
| 2026-04-20 22:56 | 57.74631 | -152.48121 | 61 ft | 0 kts | 302° |
| 2026-04-20 22:57 | 57.74673 | -152.48231 | 67 ft | 32 kts | 306° |
| 2026-04-20 22:57 | 57.74910 | -152.48821 | 66 ft | 80 kts | 306° |
| 2026-04-20 22:57 | 57.75343 | -152.49883 | 108 ft | 130 kts | 303° |
| 2026-04-20 22:58 | 57.75937 | -152.51372 | 530 ft | 139 kts | 303° |
| 2026-04-20 22:58 | 57.76463 | -152.52415 | 1953 ft | 91 kts | 303° |
| 2026-04-20 22:58 | 57.76925 | -152.53153 | 2802 ft | 84 kts | 306° |
| 2026-04-20 22:58 | 57.77390 | -152.53803 | 3425 ft | 91 kts | 312° |
| 2026-04-20 22:59 | 57.78221 | -152.53671 | 3747 ft | 161 kts | 12° |
| 2026-04-20 22:59 | 57.79133 | -152.51949 | 3892 ft | 216 kts | 53° |
| 2026-04-20 22:59 | 57.79559 | -152.49004 | 3951 ft | 250 kts | 88° |
| 2026-04-20 22:59 | 57.79274 | -152.45726 | 3976 ft | 261 kts | 107° |
| 2026-04-20 23:00 | 57.78864 | -152.42295 | 3985 ft | 273 kts | 103° |
| 2026-04-20 23:00 | 57.78551 | -152.38967 | 3998 ft | 277 kts | 99° |
| 2026-04-20 23:00 | 57.78610 | -152.35400 | 4002 ft | 278 kts | 72° |
| 2026-04-20 23:00 | 57.79474 | -152.32276 | 4302 ft | 251 kts | 43° |
| 2026-04-20 23:01 | 57.80535 | -152.29957 | 5370 ft | 219 kts | 38° |
| 2026-04-20 23:01 | 57.81506 | -152.27951 | 6332 ft | 199 kts | 35° |
| 2026-04-20 23:01 | 57.82427 | -152.26134 | 7204 ft | 183 kts | 29° |
| 2026-04-20 23:01 | 57.83357 | -152.24658 | 8059 ft | 171 kts | 22° |
| 2026-04-20 23:02 | 57.84284 | -152.23295 | 8886 ft | 168 kts | 21° |
| 2026-04-20 23:02 | 57.85178 | -152.21891 | 9640 ft | 172 kts | 24° |
| 2026-04-20 23:02 | 57.86085 | -152.20396 | 10365 ft | 174 kts | 24° |
| 2026-04-20 23:02 | 57.87014 | -152.18905 | 11127 ft | 176 kts | 22° |
| 2026-04-20 23:03 | 57.87971 | -152.17406 | 11913 ft | 180 kts | 22° |
| 2026-04-20 23:03 | 57.88930 | -152.15886 | 12682 ft | 185 kts | 22° |
| 2026-04-20 23:03 | 57.89919 | -152.14295 | 13455 ft | 189 kts | 22° |
| 2026-04-20 23:03 | 57.90921 | -152.12694 | 14175 ft | 191 kts | 21° |
| 2026-04-20 23:04 | 57.91952 | -152.11059 | 14850 ft | 195 kts | 21° |
| 2026-04-20 23:04 | 57.93001 | -152.09388 | 15525 ft | 199 kts | 21° |
| 2026-04-20 23:04 | 57.94056 | -152.07694 | 16197 ft | 202 kts | 21° |
| 2026-04-20 23:04 | 57.95137 | -152.05957 | 16952 ft | 204 kts | 17° |
| 2026-04-20 23:05 | 57.96233 | -152.04217 | 17590 ft | 209 kts | 20° |
| 2026-04-20 23:05 | 57.97374 | -152.02422 | 18241 ft | 216 kts | 22° |
| 2026-04-20 23:05 | 57.98505 | -152.00567 | 18831 ft | 219 kts | 22° |
| 2026-04-20 23:05 | 57.99665 | -151.98695 | 19428 ft | 219 kts | 21° |
| 2026-04-20 23:06 | 58.00839 | -151.96833 | 20032 ft | 221 kts | 20° |
| 2026-04-20 23:06 | 58.02022 | -151.94932 | 20638 ft | 224 kts | 20° |
| 2026-04-20 23:06 | 58.03194 | -151.93036 | 21233 ft | 226 kts | 20° |
| 2026-04-20 23:06 | 58.04402 | -151.91094 | 21838 ft | 228 kts | 20° |
| 2026-04-20 23:07 | 58.05605 | -151.89160 | 22445 ft | 230 kts | 20° |
| 2026-04-20 23:07 | 58.06827 | -151.87186 | 23053 ft | 232 kts | 19° |
| 2026-04-20 23:07 | 58.08066 | -151.85184 | 23641 ft | 235 kts | 19° |
| 2026-04-20 23:07 | 58.09318 | -151.83167 | 24153 ft | 236 kts | 20° |
| 2026-04-20 23:08 | 58.10571 | -151.81140 | 24670 ft | 238 kts | 20° |
| 2026-04-20 23:08 | 58.11820 | -151.79112 | 25184 ft | 239 kts | 21° |
| 2026-04-20 23:08 | 58.13091 | -151.77053 | 25700 ft | 241 kts | 21° |
| 2026-04-20 23:08 | 58.14372 | -151.74977 | 26211 ft | 243 kts | 21° |
| 2026-04-20 23:09 | 58.15664 | -151.72878 | 26719 ft | 245 kts | 22° |
| 2026-04-20 23:09 | 58.16948 | -151.70790 | 27258 ft | 247 kts | 23° |
| 2026-04-20 23:09 | 58.18258 | -151.68666 | 27734 ft | 249 kts | 24° |
| 2026-04-20 23:09 | 58.19577 | -151.66507 | 28220 ft | 251 kts | 24° |
| 2026-04-20 23:10 | 58.20912 | -151.64331 | 28695 ft | 252 kts | 24° |
| 2026-04-20 23:10 | 58.22234 | -151.62178 | 29161 ft | 254 kts | 24° |
| 2026-04-20 23:10 | 58.23581 | -151.59976 | 29625 ft | 255 kts | 25° |
| 2026-04-20 23:10 | 58.24916 | -151.57790 | 30067 ft | 257 kts | 25° |
| 2026-04-20 23:11 | 58.26270 | -151.55578 | 30441 ft | 257 kts | 26° |
| 2026-04-20 23:11 | 58.27631 | -151.53348 | 30822 ft | 257 kts | 27° |
| 2026-04-20 23:11 | 58.28972 | -151.51145 | 31186 ft | 256 kts | 27° |
| 2026-04-20 23:11 | 58.30324 | -151.48926 | 31538 ft | 256 kts | 28° |
| 2026-04-20 23:12 | 58.31675 | -151.46704 | 31872 ft | 256 kts | 28° |
| 2026-04-20 23:12 | 58.33008 | -151.44509 | 32179 ft | 256 kts | 29° |
| 2026-04-20 23:12 | 58.34355 | -151.42290 | 32478 ft | 256 kts | 30° |
| 2026-04-20 23:12 | 58.35707 | -151.40060 | 32754 ft | 256 kts | 30° |
| 2026-04-20 23:13 | 58.37061 | -151.37824 | 33024 ft | 256 kts | 31° |
| 2026-04-20 23:13 | 58.38396 | -151.35618 | 33272 ft | 256 kts | 31° |
| 2026-04-20 23:13 | 58.39749 | -151.33380 | 33534 ft | 258 kts | 32° |
| 2026-04-20 23:13 | 58.41113 | -151.31127 | 33713 ft | 260 kts | 33° |
| 2026-04-20 23:14 | 58.42466 | -151.28871 | 33907 ft | 260 kts | 33° |
| 2026-04-20 23:14 | 58.43834 | -151.26604 | 34068 ft | 261 kts | 33° |
| 2026-04-20 23:14 | 58.45197 | -151.24342 | 34209 ft | 261 kts | 33° |
| 2026-04-20 23:14 | 58.46571 | -151.22055 | 34343 ft | 262 kts | 33° |
| 2026-04-20 23:15 | 58.47948 | -151.19762 | 34473 ft | 262 kts | 33° |
| 2026-04-20 23:15 | 58.49327 | -151.17466 | 34594 ft | 262 kts | 33° |
| 2026-04-20 23:15 | 58.50708 | -151.15160 | 34733 ft | 261 kts | 33° |
| 2026-04-20 23:15 | 58.52081 | -151.12866 | 34861 ft | 262 kts | 33° |
| 2026-04-20 23:16 | 58.53447 | -151.10586 | 34906 ft | 265 kts | 33° |
| 2026-04-20 23:16 | 58.54849 | -151.08237 | 34937 ft | 269 kts | 34° |
| 2026-04-20 23:16 | 58.56270 | -151.05853 | 34953 ft | 273 kts | 34° |
| 2026-04-20 23:16 | 58.57712 | -151.03435 | 34962 ft | 276 kts | 34° |
| 2026-04-20 23:17 | 58.59153 | -151.01014 | 34967 ft | 280 kts | 34° |
| 2026-04-20 23:17 | 58.60622 | -150.98543 | 34969 ft | 282 kts | 34° |
| 2026-04-20 23:17 | 58.62099 | -150.96058 | 34974 ft | 284 kts | 34° |
| 2026-04-20 23:17 | 58.63596 | -150.93536 | 34975 ft | 286 kts | 34° |
| 2026-04-20 23:18 | 58.65101 | -150.90990 | 34972 ft | 288 kts | 34° |
| 2026-04-20 23:18 | 58.66612 | -150.88439 | 34970 ft | 289 kts | 34° |
| 2026-04-20 23:18 | 58.68110 | -150.85907 | 34967 ft | 290 kts | 35° |
| 2026-04-20 23:18 | 58.69636 | -150.83320 | 34968 ft | 290 kts | 35° |
| 2026-04-20 23:19 | 58.71155 | -150.80745 | 34963 ft | 291 kts | 35° |
| 2026-04-20 23:19 | 58.72655 | -150.78198 | 34967 ft | 291 kts | 35° |
| 2026-04-20 23:19 | 58.74185 | -150.75598 | 34967 ft | 291 kts | 35° |
| 2026-04-20 23:19 | 58.75717 | -150.72991 | 34965 ft | 292 kts | 35° |
| 2026-04-20 23:20 | 58.77217 | -150.70435 | 34965 ft | 292 kts | 35° |
| 2026-04-20 23:20 | 58.78740 | -150.67836 | 34965 ft | 292 kts | 35° |
| 2026-04-20 23:20 | 58.80258 | -150.65243 | 34957 ft | 292 kts | 35° |
| 2026-04-20 23:20 | 58.81790 | -150.62623 | 34957 ft | 292 kts | 35° |
| 2026-04-20 23:21 | 58.83316 | -150.60009 | 34960 ft | 292 kts | 35° |
| 2026-04-20 23:21 | 58.84823 | -150.57426 | 34959 ft | 292 kts | 35° |
| 2026-04-20 23:21 | 58.86266 | -150.54643 | 34961 ft | 298 kts | 49° |
| 2026-04-20 23:21 | 58.87573 | -150.51558 | 34962 ft | 292 kts | 38° |
| 2026-04-20 23:22 | 58.89054 | -150.48924 | 34949 ft | 291 kts | 34° |
| 2026-04-20 23:22 | 58.90582 | -150.46384 | 34948 ft | 289 kts | 31° |
| 2026-04-20 23:22 | 58.92194 | -150.44067 | 34949 ft | 287 kts | 28° |
| 2026-04-20 23:22 | 58.93773 | -150.41645 | 34948 ft | 290 kts | 33° |
| 2026-04-20 23:23 | 58.95326 | -150.39214 | 34950 ft | 289 kts | 31° |
| 2026-04-20 23:23 | 58.96917 | -150.36826 | 34951 ft | 289 kts | 31° |
| 2026-04-20 23:23 | 58.98496 | -150.34374 | 34943 ft | 290 kts | 32° |
| 2026-04-20 23:23 | 59.00073 | -150.31947 | 34945 ft | 289 kts | 31° |
| 2026-04-20 23:24 | 59.01639 | -150.29551 | 34943 ft | 289 kts | 31° |
| 2026-04-20 23:24 | 59.03222 | -150.27102 | 34944 ft | 289 kts | 31° |
| 2026-04-20 23:24 | 59.04802 | -150.24665 | 34940 ft | 289 kts | 31° |
| 2026-04-20 23:24 | 59.06372 | -150.22245 | 34940 ft | 289 kts | 31° |
| 2026-04-20 23:25 | 59.07955 | -150.19798 | 34947 ft | 290 kts | 32° |
| 2026-04-20 23:25 | 59.09535 | -150.17350 | 34938 ft | 290 kts | 32° |
| 2026-04-20 23:25 | 59.11094 | -150.14933 | 34934 ft | 289 kts | 32° |
| 2026-04-20 23:25 | 59.12665 | -150.12497 | 34924 ft | 289 kts | 32° |
| 2026-04-20 23:26 | 59.14249 | -150.10037 | 34926 ft | 289 kts | 32° |
| 2026-04-20 23:26 | 59.15821 | -150.07592 | 34933 ft | 288 kts | 32° |
| 2026-04-20 23:26 | 59.17365 | -150.05189 | 34923 ft | 288 kts | 32° |
| 2026-04-20 23:26 | 59.18927 | -150.02753 | 34924 ft | 288 kts | 32° |
| 2026-04-20 23:27 | 59.20495 | -150.00307 | 34927 ft | 288 kts | 32° |
| 2026-04-20 23:27 | 59.22058 | -149.97865 | 34925 ft | 288 kts | 32° |
| 2026-04-20 23:27 | 59.23628 | -149.95407 | 34925 ft | 288 kts | 32° |
| 2026-04-20 23:27 | 59.25173 | -149.92988 | 34925 ft | 287 kts | 32° |
| 2026-04-20 23:28 | 59.26742 | -149.90527 | 34914 ft | 287 kts | 32° |
| 2026-04-20 23:28 | 59.28206 | -149.87823 | 34915 ft | 294 kts | 49° |
| 2026-04-20 23:28 | 59.29145 | -149.84269 | 34915 ft | 299 kts | 64° |
| 2026-04-20 23:28 | 59.30101 | -149.80678 | 34934 ft | 296 kts | 54° |
| 2026-04-20 23:29 | 59.31271 | -149.77357 | 34922 ft | 294 kts | 48° |
| 2026-04-20 23:29 | 59.32539 | -149.74284 | 34919 ft | 293 kts | 44° |
| 2026-04-20 23:29 | 59.33889 | -149.71273 | 34905 ft | 292 kts | 43° |
| 2026-04-20 23:29 | 59.35260 | -149.68317 | 34904 ft | 291 kts | 40° |
| 2026-04-20 23:30 | 59.36689 | -149.65508 | 34906 ft | 291 kts | 40° |
| 2026-04-20 23:30 | 59.38061 | -149.62638 | 34906 ft | 292 kts | 41° |
| 2026-04-20 23:30 | 59.39436 | -149.59692 | 34905 ft | 292 kts | 42° |
| 2026-04-20 23:30 | 59.40809 | -149.56720 | 34905 ft | 292 kts | 42° |
| 2026-04-20 23:31 | 59.42155 | -149.53795 | 34894 ft | 292 kts | 42° |
| 2026-04-20 23:31 | 59.43530 | -149.50805 | 34895 ft | 295 kts | 43° |
| 2026-04-20 23:31 | 59.44907 | -149.47809 | 34895 ft | 296 kts | 43° |
| 2026-04-20 23:31 | 59.46293 | -149.44793 | 34895 ft | 297 kts | 43° |
| 2026-04-20 23:32 | 59.47688 | -149.41757 | 34895 ft | 298 kts | 43° |
| 2026-04-20 23:32 | 59.49073 | -149.38734 | 34890 ft | 298 kts | 42° |
| 2026-04-20 23:32 | 59.50444 | -149.35720 | 34894 ft | 299 kts | 43° |
| 2026-04-20 23:32 | 59.51842 | -149.32645 | 34896 ft | 300 kts | 43° |
| 2026-04-20 23:33 | 59.53222 | -149.29615 | 34892 ft | 300 kts | 43° |
| 2026-04-20 23:33 | 59.54658 | -149.26584 | 34889 ft | 297 kts | 37° |
| 2026-04-20 23:33 | 59.56202 | -149.23971 | 34888 ft | 295 kts | 32° |
| 2026-04-20 23:33 | 59.57820 | -149.21439 | 34887 ft | 295 kts | 31° |
| 2026-04-20 23:34 | 59.59386 | -149.18783 | 34887 ft | 298 kts | 38° |
| 2026-04-20 23:34 | 59.60949 | -149.16213 | 34878 ft | 292 kts | 27° |
| 2026-04-20 23:34 | 59.62723 | -149.14325 | 34878 ft | 283 kts | 14° |
| 2026-04-20 23:34 | 59.64565 | -149.13262 | 34878 ft | 274 kts | 1° |
| 2026-04-20 23:35 | 59.66433 | -149.12998 | 34878 ft | 265 kts | 348° |
| 2026-04-20 23:35 | 59.69832 | -149.14890 | 34886 ft | 246 kts | 322° |
| 2026-04-20 23:35 | 59.71162 | -149.16894 | 34882 ft | 238 kts | 308° |
| 2026-04-20 23:36 | 59.72157 | -149.19453 | 34883 ft | 232 kts | 295° |
| 2026-04-20 23:36 | 59.72748 | -149.22383 | 34882 ft | 228 kts | 281° |
| 2026-04-20 23:36 | 59.72897 | -149.25452 | 34881 ft | 226 kts | 266° |
| 2026-04-20 23:36 | 59.72595 | -149.28508 | 34881 ft | 227 kts | 252° |
| 2026-04-20 23:37 | 59.71856 | -149.31298 | 34881 ft | 231 kts | 238° |
| 2026-04-20 23:37 | 59.70722 | -149.33625 | 34881 ft | 237 kts | 224° |
| 2026-04-20 23:37 | 59.69277 | -149.35297 | 34881 ft | 245 kts | 210° |
| 2026-04-20 23:37 | 59.67617 | -149.36229 | 34881 ft | 253 kts | 199° |
| 2026-04-20 23:38 | 59.65883 | -149.36754 | 34877 ft | 255 kts | 196° |
| 2026-04-20 23:38 | 59.64115 | -149.37169 | 34886 ft | 256 kts | 195° |
| 2026-04-20 23:38 | 59.62331 | -149.37541 | 34886 ft | 257 kts | 194° |
| 2026-04-20 23:38 | 59.61147 | -149.37775 | 34886 ft | 257 kts | 194° |
| 2026-04-20 23:39 | 59.58780 | -149.38234 | 34886 ft | 257 kts | 194° |
| 2026-04-20 23:39 | 59.56999 | -149.38574 | 34887 ft | 258 kts | 194° |
| 2026-04-20 23:39 | 59.55790 | -149.38804 | 34887 ft | 258 kts | 194° |
| 2026-04-20 23:39 | 59.54023 | -149.39141 | 34887 ft | 258 kts | 194° |
| 2026-04-20 23:40 | 59.52233 | -149.39479 | 34887 ft | 258 kts | 194° |
| 2026-04-20 23:40 | 59.49884 | -149.40024 | 34883 ft | 254 kts | 198° |
| 2026-04-20 23:40 | 59.48680 | -149.40219 | 34889 ft | 260 kts | 188° |
| 2026-04-20 23:40 | 59.46862 | -149.39779 | 34886 ft | 270 kts | 175° |
| 2026-04-20 23:41 | 59.45057 | -149.38474 | 34890 ft | 280 kts | 162° |
| 2026-04-20 23:41 | 59.43411 | -149.36398 | 34894 ft | 289 kts | 149° |
| 2026-04-20 23:41 | 59.41960 | -149.33581 | 34896 ft | 296 kts | 136° |
| 2026-04-20 23:41 | 59.40810 | -149.30202 | 34897 ft | 302 kts | 123° |
| 2026-04-20 23:42 | 59.39997 | -149.26347 | 34899 ft | 307 kts | 110° |
| 2026-04-20 23:42 | 59.39575 | -149.22257 | 34899 ft | 309 kts | 97° |
| 2026-04-20 23:42 | 59.39550 | -149.18021 | 34898 ft | 310 kts | 85° |
| 2026-04-20 23:42 | 59.39931 | -149.13845 | 34898 ft | 309 kts | 72° |
| 2026-04-20 23:43 | 59.40687 | -149.09951 | 34901 ft | 307 kts | 60° |
| 2026-04-20 23:43 | 59.41801 | -149.06405 | 34902 ft | 302 kts | 47° |
| 2026-04-20 23:43 | 59.43219 | -149.03383 | 34909 ft | 296 kts | 35° |
| 2026-04-20 23:43 | 59.44864 | -149.01027 | 34899 ft | 289 kts | 22° |
| 2026-04-20 23:44 | 59.46631 | -148.99322 | 34895 ft | 286 kts | 18° |
| 2026-04-20 23:44 | 59.48382 | -148.97353 | 34892 ft | 291 kts | 26° |
| 2026-04-20 23:44 | 59.50033 | -148.95018 | 34890 ft | 294 kts | 31° |
| 2026-04-20 23:44 | 59.51611 | -148.92424 | 34890 ft | 296 kts | 35° |
| 2026-04-20 23:45 | 59.53132 | -148.89640 | 34882 ft | 298 kts | 40° |
| 2026-04-20 23:45 | 59.54553 | -148.86714 | 34882 ft | 298 kts | 40° |
| 2026-04-20 23:45 | 59.56014 | -148.83790 | 34884 ft | 298 kts | 39° |
| 2026-04-20 23:45 | 59.57476 | -148.80884 | 34883 ft | 299 kts | 40° |
| 2026-04-20 23:46 | 59.58817 | -148.77745 | 34884 ft | 301 kts | 47° |
| 2026-04-20 23:46 | 59.60143 | -148.74575 | 34885 ft | 300 kts | 43° |
| 2026-04-20 23:46 | 59.61516 | -148.71463 | 34879 ft | 300 kts | 44° |
| 2026-04-20 23:47 | 59.64196 | -148.65156 | 34877 ft | 300 kts | 44° |
| 2026-04-20 23:47 | 59.66903 | -148.58812 | 34894 ft | 301 kts | 45° |
| 2026-04-20 23:48 | 59.69637 | -148.52407 | 34407 ft | 319 kts | 45° |
| 2026-04-20 23:48 | 59.71098 | -148.48949 | 33950 ft | 333 kts | 45° |
| 2026-04-20 23:48 | 59.72613 | -148.45376 | 33420 ft | 342 kts | 45° |
| 2026-04-20 23:48 | 59.74163 | -148.41716 | 32884 ft | 349 kts | 45° |
| 2026-04-20 23:49 | 59.75734 | -148.37995 | 32358 ft | 353 kts | 45° |
| 2026-04-20 23:49 | 59.77296 | -148.34296 | 31848 ft | 354 kts | 45° |
| 2026-04-20 23:49 | 59.78888 | -148.30517 | 31340 ft | 356 kts | 44° |
| 2026-04-20 23:49 | 59.80482 | -148.26724 | 30844 ft | 358 kts | 44° |
| 2026-04-20 23:50 | 59.82086 | -148.22906 | 30386 ft | 359 kts | 44° |
| 2026-04-20 23:50 | 59.83656 | -148.19156 | 30114 ft | 354 kts | 44° |
| 2026-04-20 23:50 | 59.85218 | -148.15421 | 29859 ft | 344 kts | 44° |
| 2026-04-20 23:50 | 59.86726 | -148.11823 | 29616 ft | 332 kts | 44° |
| 2026-04-20 23:51 | 59.88186 | -148.08317 | 29286 ft | 325 kts | 44° |
| 2026-04-20 23:51 | 59.89603 | -148.04911 | 28999 ft | 320 kts | 43° |
| 2026-04-20 23:51 | 59.91023 | -148.01511 | 28713 ft | 317 kts | 43° |
| 2026-04-20 23:51 | 59.92423 | -147.98130 | 28430 ft | 315 kts | 43° |
| 2026-04-20 23:52 | 59.93823 | -147.94756 | 28145 ft | 314 kts | 43° |
| 2026-04-20 23:52 | 59.95196 | -147.91443 | 27875 ft | 313 kts | 43° |
| 2026-04-20 23:52 | 59.96584 | -147.88083 | 27600 ft | 313 kts | 44° |
| 2026-04-20 23:52 | 59.97977 | -147.84712 | 27328 ft | 313 kts | 44° |
| 2026-04-20 23:53 | 59.99419 | -147.81487 | 27058 ft | 308 kts | 35° |
| 2026-04-20 23:53 | 60.01089 | -147.78856 | 26659 ft | 303 kts | 22° |
| 2026-04-20 23:53 | 60.02937 | -147.76948 | 26265 ft | 295 kts | 11° |
| 2026-04-20 23:53 | 60.04848 | -147.75614 | 25881 ft | 292 kts | 6° |
| 2026-04-20 23:54 | 60.06794 | -147.74395 | 25495 ft | 293 kts | 6° |
| 2026-04-20 23:54 | 60.08749 | -147.73174 | 25152 ft | 293 kts | 7° |
| 2026-04-20 23:54 | 60.10671 | -147.71942 | 24784 ft | 294 kts | 7° |
| 2026-04-20 23:54 | 60.12628 | -147.70661 | 24419 ft | 300 kts | 8° |
| 2026-04-20 23:55 | 60.14675 | -147.69325 | 24057 ft | 315 kts | 9° |
| 2026-04-20 23:55 | 60.16794 | -147.67922 | 23720 ft | 323 kts | 10° |
| 2026-04-20 23:55 | 60.18945 | -147.66496 | 23347 ft | 327 kts | 11° |
| 2026-04-20 23:55 | 60.21050 | -147.64761 | 22917 ft | 334 kts | 18° |
| 2026-04-20 23:56 | 60.23166 | -147.62767 | 22478 ft | 333 kts | 16° |
| 2026-04-20 23:56 | 60.25311 | -147.60984 | 22072 ft | 333 kts | 17° |
| 2026-04-20 23:56 | 60.27436 | -147.59072 | 21654 ft | 333 kts | 18° |
| 2026-04-20 23:56 | 60.29537 | -147.57245 | 21248 ft | 332 kts | 17° |
| 2026-04-20 23:57 | 60.31658 | -147.55386 | 20839 ft | 331 kts | 18° |
| 2026-04-20 23:57 | 60.33769 | -147.53514 | 20440 ft | 329 kts | 18° |
| 2026-04-20 23:57 | 60.35862 | -147.51678 | 20045 ft | 325 kts | 18° |
| 2026-04-20 23:57 | 60.37898 | -147.49884 | 19693 ft | 320 kts | 19° |
| 2026-04-20 23:58 | 60.39944 | -147.48062 | 19309 ft | 317 kts | 19° |
| 2026-04-20 23:58 | 60.41945 | -147.46298 | 18936 ft | 316 kts | 19° |
| 2026-04-20 23:58 | 60.43955 | -147.44513 | 18560 ft | 315 kts | 19° |
| 2026-04-20 23:58 | 60.45963 | -147.42728 | 18180 ft | 313 kts | 19° |
| 2026-04-20 23:59 | 60.47959 | -147.40956 | 17767 ft | 311 kts | 19° |
| 2026-04-20 23:59 | 60.49903 | -147.39222 | 17346 ft | 308 kts | 20° |
| 2026-04-20 23:59 | 60.51870 | -147.37468 | 16924 ft | 305 kts | 20° |
| 2026-04-20 23:59 | 60.53816 | -147.35731 | 16511 ft | 304 kts | 20° |
| 2026-04-21 00:00 | 60.55725 | -147.34024 | 16107 ft | 302 kts | 20° |
| 2026-04-21 00:00 | 60.57652 | -147.32297 | 15700 ft | 299 kts | 20° |
| 2026-04-21 00:00 | 60.59551 | -147.30599 | 15319 ft | 297 kts | 20° |
| 2026-04-21 00:00 | 60.61445 | -147.28900 | 14925 ft | 295 kts | 21° |
| 2026-04-21 00:01 | 60.63303 | -147.27223 | 14543 ft | 294 kts | 21° |
| 2026-04-21 00:01 | 60.65180 | -147.25552 | 14162 ft | 293 kts | 22° |
| 2026-04-21 00:01 | 60.67048 | -147.23849 | 13783 ft | 293 kts | 23° |
| 2026-04-21 00:01 | 60.68894 | -147.22184 | 13366 ft | 292 kts | 22° |
| 2026-04-21 00:02 | 60.70750 | -147.20517 | 12962 ft | 290 kts | 23° |
| 2026-04-21 00:02 | 60.72596 | -147.18839 | 12545 ft | 284 kts | 23° |
| 2026-04-21 00:02 | 60.74349 | -147.17252 | 12140 ft | 274 kts | 23° |
| 2026-04-21 00:02 | 60.76071 | -147.15696 | 11735 ft | 267 kts | 23° |
| 2026-04-21 00:03 | 60.77769 | -147.14154 | 11330 ft | 263 kts | 23° |
| 2026-04-21 00:03 | 60.79419 | -147.12652 | 10939 ft | 260 kts | 24° |
| 2026-04-21 00:03 | 60.81052 | -147.11168 | 10571 ft | 257 kts | 24° |
| 2026-04-21 00:03 | 60.82689 | -147.09676 | 10183 ft | 255 kts | 24° |
| 2026-04-21 00:04 | 60.84308 | -147.08200 | 9800 ft | 253 kts | 24° |
| 2026-04-21 00:04 | 60.85896 | -147.06749 | 9387 ft | 250 kts | 24° |
| 2026-04-21 00:04 | 60.87486 | -147.05298 | 8965 ft | 247 kts | 24° |
| 2026-04-21 00:04 | 60.89041 | -147.03876 | 8556 ft | 244 kts | 24° |
| 2026-04-21 00:05 | 60.90585 | -147.02458 | 8159 ft | 241 kts | 24° |
| 2026-04-21 00:05 | 60.92075 | -147.01097 | 7953 ft | 232 kts | 24° |
| 2026-04-21 00:05 | 60.93524 | -146.99767 | 7852 ft | 222 kts | 25° |
| 2026-04-21 00:05 | 60.94910 | -146.98489 | 7806 ft | 213 kts | 25° |
| 2026-04-21 00:06 | 60.96247 | -146.97263 | 7794 ft | 209 kts | 25° |
| 2026-04-21 00:06 | 60.97619 | -146.96000 | 7783 ft | 221 kts | 24° |
| 2026-04-21 00:06 | 60.99038 | -146.94699 | 7777 ft | 228 kts | 25° |
| 2026-04-21 00:06 | 61.00467 | -146.93372 | 7774 ft | 221 kts | 25° |
| 2026-04-21 00:07 | 61.01851 | -146.92091 | 7767 ft | 212 kts | 24° |
| 2026-04-21 00:07 | 61.03183 | -146.90880 | 7766 ft | 206 kts | 25° |
| 2026-04-21 00:07 | 61.04464 | -146.89708 | 7773 ft | 203 kts | 24° |
| 2026-04-21 00:07 | 61.05561 | -146.87975 | 7764 ft | 197 kts | 57° |
| 2026-04-21 00:08 | 61.06085 | -146.85400 | 7763 ft | 195 kts | 76° |
| 2026-04-21 00:08 | 61.06444 | -146.82651 | 7575 ft | 203 kts | 79° |
| 2026-04-21 00:08 | 61.06769 | -146.79788 | 7389 ft | 208 kts | 80° |
| 2026-04-21 00:08 | 61.07088 | -146.76796 | 7027 ft | 213 kts | 80° |
| 2026-04-21 00:09 | 61.07392 | -146.73898 | 6734 ft | 199 kts | 80° |
| 2026-04-21 00:09 | 61.07677 | -146.71199 | 6561 ft | 186 kts | 80° |
| 2026-04-21 00:09 | 61.07937 | -146.68741 | 6237 ft | 160 kts | 81° |
| 2026-04-21 00:09 | 61.08162 | -146.66692 | 6092 ft | 137 kts | 81° |
| 2026-04-21 00:10 | 61.08363 | -146.64867 | 5917 ft | 129 kts | 81° |
| 2026-04-21 00:10 | 61.08562 | -146.63048 | 5684 ft | 127 kts | 80° |
| 2026-04-21 00:10 | 61.08766 | -146.61339 | 5562 ft | 117 kts | 79° |
| 2026-04-21 00:10 | 61.08968 | -146.59782 | 5519 ft | 108 kts | 79° |
| 2026-04-21 00:11 | 61.09181 | -146.58137 | 5504 ft | 131 kts | 79° |
| 2026-04-21 00:11 | 61.09420 | -146.56232 | 5492 ft | 143 kts | 78° |
| 2026-04-21 00:11 | 61.09676 | -146.54171 | 5319 ft | 152 kts | 78° |
| 2026-04-21 00:11 | 61.09940 | -146.52021 | 5106 ft | 155 kts | 79° |
| 2026-04-21 00:12 | 61.10201 | -146.49855 | 4894 ft | 155 kts | 78° |
| 2026-04-21 00:12 | 61.10464 | -146.47704 | 4725 ft | 152 kts | 78° |
| 2026-04-21 00:12 | 61.10721 | -146.45647 | 4649 ft | 147 kts | 78° |
| 2026-04-21 00:12 | 61.10973 | -146.43618 | 4614 ft | 142 kts | 80° |
| 2026-04-21 00:13 | 61.11197 | -146.41644 | 4520 ft | 140 kts | 79° |
| 2026-04-21 00:13 | 61.11374 | -146.39716 | 4331 ft | 136 kts | 82° |
| 2026-04-21 00:13 | 61.11551 | -146.37832 | 4058 ft | 129 kts | 81° |
| 2026-04-21 00:13 | 61.11711 | -146.36045 | 3720 ft | 123 kts | 85° |
| 2026-04-21 00:14 | 61.11783 | -146.34347 | 3447 ft | 115 kts | 87° |
| 2026-04-21 00:14 | 61.11842 | -146.32735 | 3124 ft | 111 kts | 89° |
| 2026-04-21 00:14 | 61.11824 | -146.31082 | 2733 ft | 120 kts | 90° |
| 2026-04-21 00:14 | 61.11847 | -146.29260 | 2181 ft | 134 kts | 88° |
| 2026-04-21 00:15 | 61.11812 | -146.27323 | 1888 ft | 132 kts | 91° |
| 2026-04-21 00:15 | 61.11834 | -146.25468 | 1698 ft | 126 kts | 85° |
| 2026-04-21 00:15 | 61.11929 | -146.23649 | 1405 ft | 130 kts | 79° |
| 2026-04-21 00:15 | 61.12104 | -146.21834 | 1127 ft | 123 kts | 79° |
| 2026-04-21 00:16 | 61.12288 | -146.20188 | 1041 ft | 113 kts | 77° |
| 2026-04-21 00:16 | 61.12877 | -146.19612 | 949 ft | 108 kts | 322° |
| 2026-04-21 00:16 | 61.13357 | -146.20900 | 580 ft | 115 kts | 300° |
| 2026-04-21 00:16 | 61.13552 | -146.22422 | 172 ft | 109 kts | 268° |
| 2026-04-21 00:17 | 61.13458 | -146.23807 | 101 ft | 86 kts | 263° |
| 2026-04-21 00:17 | 61.13398 | -146.24763 | 87 ft | 45 kts | 262° |
| 2026-04-21 00:17 | 61.13358 | -146.25313 | 246 ft | 33 kts | 261° |
| 2026-04-21 00:17 | 61.13320 | -146.25707 | 241 ft | 24 kts | 242° |
| 2026-04-21 00:18 | 61.13201 | -146.25785 | 238 ft | 17 kts | 175° |
| 2026-04-21 00:18 | 61.13094 | -146.25749 | 237 ft | 11 kts | 154° |
| 2026-04-21 00:18 | 61.13066 | -146.25681 | 240 ft | 0 kts | 101° |